Granville, OH (43023)

1:41 AM EDT on May 01, 2017 (GMT -0400)
Granville South, Granville Township | | Change Station

Elev 1060 ft 40.05 °N, 82.57 °W | Updated 1 minute ago

Mostly Cloudy
Mostly Cloudy
72.0 °F
Feels Like 76 °F
N
0.0
Wind Variable Wind from SE
Gusts 1.0 mph

Today
High -- | Low -- °F
--% Chance of Precip.
Yesterday
High -- | Low -- °F
Precip. -- in
Pressure 29.75 in
Visibility 10.0 miles
Clouds Mostly Cloudy 12000 ft
Heat Index 76 °F
Dew Point 58 °F
Humidity 62%
Rainfall 0.00 in
Snow Depth Not available.
6:29 AM 8:25 PM
Waxing Crescent, 29% visible
METAR KVTA 010454Z AUTO 18008KT 10SM BKN120 24/15 A2977 RMK AO2 RAB06E36 SLP073 P0000 T02390150 402780133
Pressure 29.75 in
Visibility 10.0 miles
Clouds Mostly Cloudy 12000 ft
Heat Index 76 °F
Dew Point 58 °F
Humidity 62%
Rainfall 0.00 in
Snow Depth Not available.
6:29 AM 8:25 PM
Waxing Crescent, 29% visible
METAR KVTA 010454Z AUTO 18008KT 10SM BKN120 24/15 A2977 RMK AO2 RAB06E36 SLP073 P0000 T02390150 402780133

Get Severe Weather Alerts

Thanks for signing up!

Be on the lookout for a verification email in your inbox.

You'll start receiving the daily forecast at 8 AM.

×

10-Day Weather Forecast

Almanac

Astronomy

May. 01, 2017 Rise Set
Actual Time
Civil Twilight
Nautical Twilight
Astronomical Twilight
Moon
Length of Visible Light
Length of Day
Tomorrow will be .
, % of the Moon is Illuminated

Today's Extremes

State Highs State Lows

Community

WunderPhotos

WunderBlog® & News

Nearby

Air Quality

  Air Quality AQ Index Pollutant
Not available.

Snow Depth

Station Depth Elevation

Earthquake Activity

City Distance Mag. Time & Date
Minimum magnitude displayed is 2.5.

Coastal Water Temperatures

Place Temperature

Stations

Nearby Weather Stations

Station Location Temp. Windchill Dew Point Humidity Wind Precip. Elev Updated Type
                   

Watches & Warnings

There are currently no watches in effect.